Weather at Beja Civil Airfield UL

Public forecast

Using degrees Celsius for public forecast. Weather courtesy of forecast.io.

Closest aviation weather report (METAR) to Beja Civil Airfield UL

Closest report is Beja Airport / Airbase, 2.8 nm (5.2 km) WNW.

2024/07/13 21:00 (retrieved 33 minutes ago)

LPBJ 132100Z 27007KT CAVOK 20/03 Q1013

Closest aviation forecast (TAF) to Beja Civil Airfield UL

Closest forecast is Beja Airport / Airbase, 2.8 nm (5.2 km) WNW.

2024/07/13 18:18 (retrieved 3 hours ago)

TAF LPBJ 131703Z 1318/1418 30010KT CAVOK